Terminal Aerodrome Forecast
Issued by NWS Bismarck, ND

Home | Current Version | Previous Version | Text Only | Print | Product List | Glossary On
Versions: 1 2 3 4 5 6 7 8 9 10 11 12 13 14 15 16
000
FTUS43 KBIS 182300
TAFISN
TAF
KISN 182335Z 1900/1924 20006KT P6SM OVC008
      TEMPO 1903/1905 SCT008
     FM190500 21003KT P6SM SCT100
     FM191800 25005KT P6SM SCT100=

USA.gov is the U.S. government's official web portal to all federal, state and local government web resources and services.